Accueil
METAR-TAF:

METAR-TAF

Aéroports :

Sion, Suisse

Aéroport de Sion

latitude: 46-13N, longitude: 007-20E, altitude: 482 m

Observation

Le bulletin a été fait il y a 22 minutes, à 08:50 UTC
Vent 3 kt de direction variable
Température 21°C
Humidité 60%
Pression 1019 hPa
Visibilité 10 km ou plus
Quelques nuages à une hauteur de 3000 ft
Nuages épars à une hauteur de 6000 ft

METAR: LSGS 190850Z VRB03KT 9999 FEW030 SCT060 21/13 Q1019

Heure: 11:12 (09:12 UTC)

Prévision

Le bulletin a été fait il y a 47 minutes, à 08:25 UTC
Prévision valable du 19 à 09 UTC au 19 à 18 UTC
Vent 3 kt de direction variable
Visibilité 10 km ou plus
Quelques nuages à une hauteur de 2500 ft
Nuages épars à une hauteur de 7000 ft
Evoluant progressivement
du 19 à 10 UTC au 19 à 12 UTC
Vent 12 kt de ouest/sud-ouest

TAF: LSGS 190825Z 1909/1918 VRB03KT 9999 FEW025 SCT070 BECMG 1910/1912 25012KT

Observations et prévisions météorologiques de plus de 4000 aéroports (messages METAR et TAF).

Les stations disponibles sont représentées par des disques jaunes et rouges sur la carte.

Passer la souris dessus pour voir le nom de la station.

Cliquer dessus pour voir les observations et prévisions météorologiques.

Pour changer de carte: cliquez sur les boutons verts avec une croix noire pour zoomer, sur le bouton vert avec un tiret pour effectuer un zoom arrière, ou sur les flèches vertes pour les cartes adjacentes.


METAR-TAF: